createdAt,value
2022-07-28T00:00:10.679Z,22.30
2022-07-28T00:02:37.535Z,22.20
2022-07-28T00:05:05.207Z,22.10
2022-07-28T00:07:32.087Z,22.10
2022-07-28T00:10:00.729Z,22.10
2022-07-28T00:12:28.014Z,22.10
2022-07-28T00:14:54.849Z,22.10
2022-07-28T00:17:21.630Z,22.10
2022-07-28T00:19:48.429Z,22.10
2022-07-28T00:22:15.242Z,22.00
2022-07-28T00:24:42.229Z,21.80
2022-07-28T00:27:09.210Z,21.70
2022-07-28T00:29:49.928Z,21.80
2022-07-28T00:32:18.838Z,21.80
2022-07-28T00:34:45.742Z,21.70
2022-07-28T00:37:14.420Z,21.60
2022-07-28T00:39:42.292Z,21.50
2022-07-28T00:42:09.223Z,21.50
2022-07-28T00:44:36.444Z,21.50
2022-07-28T00:47:03.394Z,21.40
2022-07-28T00:49:30.319Z,21.30
2022-07-28T00:51:57.598Z,21.30
2022-07-28T00:54:24.630Z,21.30
2022-07-28T00:56:51.434Z,21.40
2022-07-28T00:59:18.236Z,21.40
2022-07-28T01:01:45.138Z,21.40
2022-07-28T01:04:12.407Z,21.40
2022-07-28T01:06:52.170Z,21.40
2022-07-28T01:09:51.625Z,21.40
2022-07-28T01:13:01.894Z,21.40
2022-07-28T01:15:35.993Z,21.30
2022-07-28T01:18:13.359Z,21.30
2022-07-28T01:20:54.256Z,21.30
2022-07-28T01:23:33.167Z,21.20
2022-07-28T01:26:06.583Z,21.20
2022-07-28T01:28:39.698Z,21.20
2022-07-28T01:31:09.118Z,21.20
2022-07-28T01:33:42.078Z,21.20
2022-07-28T01:36:11.238Z,21.10
2022-07-28T01:38:39.261Z,21.10
2022-07-28T01:41:11.452Z,21.20
2022-07-28T01:43:42.431Z,21.10
2022-07-28T01:46:10.418Z,21.10
2022-07-28T01:48:40.243Z,21.10
2022-07-28T01:51:09.024Z,21.00
2022-07-28T01:53:38.369Z,21.00
2022-07-28T01:56:07.047Z,21.00
2022-07-28T01:58:35.126Z,21.10
2022-07-28T02:01:04.684Z,21.10
2022-07-28T02:03:32.504Z,21.10
2022-07-28T02:06:02.643Z,21.10
2022-07-28T02:08:31.896Z,21.10
2022-07-28T02:11:18.403Z,21.10
2022-07-28T02:13:46.882Z,21.10
2022-07-28T02:16:16.673Z,21.00
2022-07-28T02:18:45.169Z,21.00
2022-07-28T02:21:12.990Z,21.00
2022-07-28T02:23:41.169Z,21.00
2022-07-28T02:26:10.903Z,21.00
2022-07-28T02:28:42.937Z,21.00
2022-07-28T02:31:25.042Z,21.00
2022-07-28T02:34:02.377Z,21.00
2022-07-28T02:36:34.700Z,21.00
2022-07-28T02:39:17.266Z,20.90
2022-07-28T02:41:44.462Z,20.90
2022-07-28T02:44:17.655Z,20.80
2022-07-28T02:46:48.072Z,20.80
2022-07-28T02:49:32.347Z,20.80
2022-07-28T02:52:00.797Z,20.60
2022-07-28T02:54:30.306Z,20.30
2022-07-28T02:57:00.018Z,20.30
2022-07-28T02:59:28.509Z,20.30
2022-07-28T03:01:56.913Z,20.30
2022-07-28T03:04:44.024Z,20.40
2022-07-28T03:07:11.355Z,20.40
2022-07-28T03:09:41.581Z,20.40
2022-07-28T03:12:09.539Z,20.30
2022-07-28T03:14:36.618Z,20.30
2022-07-28T03:17:04.146Z,20.20
2022-07-28T03:19:31.551Z,20.10
2022-07-28T03:21:58.565Z,20.20
2022-07-28T03:24:29.637Z,20.30
2022-07-28T03:27:02.386Z,20.30
2022-07-28T03:29:32.691Z,20.40
2022-07-28T03:32:00.509Z,20.40
2022-07-28T03:34:28.515Z,20.40
2022-07-28T03:37:08.448Z,20.40
2022-07-28T03:39:43.822Z,20.50
2022-07-28T03:42:11.711Z,20.50
2022-07-28T03:44:39.614Z,20.40
2022-07-28T03:47:07.163Z,20.40
2022-07-28T03:49:33.898Z,20.30
2022-07-28T03:52:00.720Z,20.20
2022-07-28T03:54:27.419Z,20.10
2022-07-28T03:56:54.180Z,20.10
2022-07-28T03:59:21.433Z,20.10
2022-07-28T04:01:48.300Z,20.20
2022-07-28T04:04:15.690Z,20.10
2022-07-28T04:06:42.797Z,20.10
2022-07-28T04:09:09.533Z,20.10
2022-07-28T04:11:36.266Z,20.00
2022-07-28T04:14:03.014Z,19.90
2022-07-28T04:16:29.751Z,20.00
2022-07-28T04:18:56.530Z,20.00
2022-07-28T04:21:23.442Z,20.00
2022-07-28T04:23:50.457Z,19.90
2022-07-28T04:26:17.585Z,19.80
2022-07-28T04:28:45.630Z,19.70
2022-07-28T04:31:12.622Z,19.70
2022-07-28T04:33:40.002Z,19.80
2022-07-28T04:36:06.764Z,19.80
2022-07-28T04:38:34.485Z,19.90
2022-07-28T04:41:01.268Z,20.00
2022-07-28T04:43:28.087Z,20.10
2022-07-28T04:45:54.921Z,19.90
2022-07-28T04:48:23.287Z,19.90
2022-07-28T04:50:51.305Z,19.80
2022-07-28T04:53:19.024Z,19.70
2022-07-28T04:55:46.162Z,19.80
2022-07-28T04:58:13.519Z,19.70
2022-07-28T05:00:40.472Z,19.80
2022-07-28T05:03:07.221Z,20.00
2022-07-28T05:05:33.969Z,20.10
2022-07-28T05:08:00.682Z,20.10
2022-07-28T05:10:27.509Z,20.10
2022-07-28T05:12:54.537Z,20.10
2022-07-28T05:15:21.306Z,20.10
2022-07-28T05:17:49.846Z,20.20
2022-07-28T05:20:17.329Z,20.20
2022-07-28T05:22:57.329Z,20.30
2022-07-28T05:25:24.978Z,20.40
2022-07-28T05:27:53.723Z,20.40
2022-07-28T05:30:20.947Z,20.40
2022-07-28T05:32:49.155Z,20.50
2022-07-28T05:35:16.695Z,20.40
2022-07-28T05:37:43.909Z,20.30
2022-07-28T05:40:15.415Z,20.20
2022-07-28T05:42:43.310Z,20.20
2022-07-28T05:45:16.684Z,20.30
2022-07-28T05:47:52.551Z,20.40
2022-07-28T05:50:21.409Z,20.40
2022-07-28T05:52:49.250Z,20.60
2022-07-28T05:55:16.413Z,20.50
2022-07-28T05:57:43.723Z,20.50
2022-07-28T06:00:19.221Z,20.70
2022-07-28T06:02:47.375Z,20.80
2022-07-28T06:05:14.632Z,21.00
2022-07-28T06:07:43.723Z,20.90
2022-07-28T06:10:15.624Z,20.60
2022-07-28T06:12:44.272Z,20.70
2022-07-28T06:15:18.659Z,20.60
2022-07-28T06:17:45.401Z,20.70
2022-07-28T06:20:13.441Z,20.90
2022-07-28T06:22:51.354Z,21.10
2022-07-28T06:25:20.669Z,21.20
2022-07-28T06:27:48.947Z,21.30
2022-07-28T06:30:16.960Z,21.40
2022-07-28T06:32:44.367Z,21.30
2022-07-28T06:35:14.683Z,21.30
2022-07-28T06:37:41.406Z,21.20
2022-07-28T06:40:09.309Z,20.80
2022-07-28T06:42:36.170Z,20.80
2022-07-28T06:45:03.146Z,20.80
2022-07-28T06:47:29.961Z,20.80
2022-07-28T06:49:56.649Z,20.90
2022-07-28T06:52:23.514Z,21.10
2022-07-28T06:54:51.710Z,21.10
2022-07-28T06:57:20.959Z,21.20
2022-07-28T06:59:48.805Z,21.30
2022-07-28T07:02:16.968Z,21.40
2022-07-28T07:04:44.954Z,21.30
2022-07-28T07:07:17.103Z,21.50
2022-07-28T07:09:44.283Z,21.60
2022-07-28T07:12:10.998Z,21.60
2022-07-28T07:14:37.766Z,21.70
2022-07-28T07:17:04.471Z,21.80
2022-07-28T07:19:31.166Z,21.70
2022-07-28T07:21:57.934Z,21.70
2022-07-28T07:24:24.621Z,21.80
2022-07-28T07:26:51.362Z,21.90
2022-07-28T07:29:18.256Z,21.80
2022-07-28T07:31:45.084Z,21.90
2022-07-28T07:34:12.191Z,22.00
2022-07-28T07:36:39.231Z,22.00
2022-07-28T07:39:05.939Z,21.80
2022-07-28T07:41:32.640Z,21.70
2022-07-28T07:43:59.354Z,21.80
2022-07-28T07:46:26.092Z,21.70
2022-07-28T07:48:52.939Z,22.00
2022-07-28T07:51:19.609Z,22.20
2022-07-28T07:53:46.334Z,22.30
2022-07-28T07:56:14.521Z,22.40
2022-07-28T07:58:41.239Z,22.50
2022-07-28T08:01:07.922Z,22.60
2022-07-28T08:03:34.768Z,22.70
2022-07-28T08:06:02.414Z,22.80
2022-07-28T08:08:29.165Z,23.10
2022-07-28T08:10:55.867Z,23.10
2022-07-28T08:13:23.662Z,23.30
2022-07-28T08:15:50.750Z,23.30
2022-07-28T08:18:17.602Z,23.40
2022-07-28T08:20:44.363Z,23.40
2022-07-28T08:23:11.113Z,23.40
2022-07-28T08:25:38.430Z,23.40
2022-07-28T08:28:05.348Z,23.60
2022-07-28T08:30:33.090Z,23.70
2022-07-28T08:33:00.674Z,23.80
2022-07-28T08:35:33.712Z,23.70
2022-07-28T08:38:03.109Z,23.70
2022-07-28T08:40:32.302Z,23.80
2022-07-28T08:43:15.326Z,23.90
2022-07-28T08:45:47.199Z,24.20
2022-07-28T08:48:16.343Z,24.30
2022-07-28T08:50:44.362Z,24.30
2022-07-28T08:53:11.387Z,24.20
2022-07-28T08:55:38.939Z,24.20
2022-07-28T08:58:06.138Z,24.40
2022-07-28T09:00:33.139Z,24.40
2022-07-28T09:03:03.116Z,24.60
2022-07-28T09:05:30.367Z,24.70
2022-07-28T09:08:00.068Z,24.90
2022-07-28T09:10:28.040Z,24.90
2022-07-28T09:12:55.774Z,25.00
2022-07-28T09:15:22.701Z,25.00
2022-07-28T09:17:49.449Z,25.00
2022-07-28T09:20:16.968Z,25.30
2022-07-28T09:23:04.297Z,25.40
2022-07-28T09:25:31.443Z,25.50
2022-07-28T09:28:07.574Z,25.60
2022-07-28T09:30:37.249Z,25.80
2022-07-28T09:33:42.271Z,25.80
2022-07-28T09:36:02.396Z,25.90
2022-07-28T09:38:40.727Z,25.90
2022-07-28T09:41:07.872Z,26.00
2022-07-28T09:43:40.100Z,26.00
2022-07-28T09:46:13.055Z,26.10
2022-07-28T09:48:49.239Z,26.20
2022-07-28T09:51:18.517Z,26.50
2022-07-28T09:53:45.391Z,26.80
2022-07-28T09:56:13.031Z,26.90
2022-07-28T09:58:40.731Z,26.90
2022-07-28T10:01:13.227Z,26.80
2022-07-28T10:03:41.550Z,26.90
2022-07-28T10:06:13.641Z,27.00
2022-07-28T10:08:45.963Z,26.90
2022-07-28T10:11:14.869Z,27.20
2022-07-28T10:14:13.590Z,27.30
2022-07-28T10:16:44.335Z,27.20
2022-07-28T10:19:11.090Z,27.40
2022-07-28T10:21:48.619Z,27.60
2022-07-28T10:24:22.559Z,27.80
2022-07-28T10:26:50.622Z,28.00
2022-07-28T10:29:18.982Z,28.10
2022-07-28T10:31:54.510Z,28.20
2022-07-28T10:34:26.433Z,28.20
2022-07-28T10:36:56.016Z,28.10
2022-07-28T10:39:25.573Z,28.10
2022-07-28T10:41:52.965Z,28.10
2022-07-28T10:44:20.473Z,28.20
2022-07-28T10:46:47.587Z,28.30
2022-07-28T10:49:14.945Z,28.60
2022-07-28T10:52:06.319Z,28.80
2022-07-28T10:55:02.184Z,29.10
2022-07-28T10:57:31.227Z,29.20
2022-07-28T10:59:58.613Z,29.30
2022-07-28T11:02:45.394Z,29.40
2022-07-28T11:05:47.946Z,29.60
2022-07-28T11:08:17.318Z,29.70
2022-07-28T11:10:50.002Z,29.80
2022-07-28T11:13:32.967Z,29.80
2022-07-28T11:16:35.801Z,29.70
2022-07-28T11:19:40.717Z,29.50
2022-07-28T11:22:18.357Z,29.40
2022-07-28T11:25:21.147Z,29.80
2022-07-28T11:27:54.178Z,30.20
2022-07-28T11:30:32.108Z,30.40
2022-07-28T11:33:06.458Z,30.30
2022-07-28T11:35:39.044Z,30.30
2022-07-28T11:38:05.946Z,30.50
2022-07-28T11:40:35.037Z,30.80
2022-07-28T11:43:22.435Z,31.00
2022-07-28T11:46:02.068Z,30.90
2022-07-28T11:48:29.634Z,30.70
2022-07-28T11:51:05.300Z,30.60
2022-07-28T11:53:50.368Z,30.70
2022-07-28T11:56:25.772Z,30.80
2022-07-28T11:59:01.190Z,31.10
2022-07-28T12:01:28.039Z,31.50
2022-07-28T12:03:59.880Z,31.80
2022-07-28T12:06:35.357Z,32.10
2022-07-28T12:09:05.131Z,32.20
2022-07-28T12:11:40.900Z,32.10
2022-07-28T12:14:16.454Z,31.80
2022-07-28T12:16:45.678Z,31.60
2022-07-28T12:19:16.061Z,31.40
2022-07-28T12:21:52.116Z,31.20
2022-07-28T12:24:31.162Z,31.00
2022-07-28T12:26:59.488Z,30.80
2022-07-28T12:29:35.749Z,30.70
2022-07-28T12:32:09.767Z,30.70
2022-07-28T12:34:39.725Z,30.90
2022-07-28T12:37:11.081Z,31.00
2022-07-28T12:39:42.669Z,31.10
2022-07-28T12:42:12.142Z,31.30
2022-07-28T12:44:41.682Z,31.20
2022-07-28T12:47:12.191Z,31.20
2022-07-28T12:49:42.001Z,31.00
2022-07-28T12:52:18.751Z,31.00
2022-07-28T12:54:53.623Z,30.90
2022-07-28T12:57:48.341Z,31.10
2022-07-28T13:00:21.355Z,31.50
2022-07-28T13:02:50.930Z,31.60
2022-07-28T13:05:59.902Z,31.60
2022-07-28T13:08:27.570Z,31.50
2022-07-28T13:10:58.938Z,31.50
2022-07-28T13:13:26.845Z,31.60
2022-07-28T13:16:13.649Z,31.60
2022-07-28T13:18:45.583Z,31.80
2022-07-28T13:21:13.102Z,31.90
2022-07-28T13:23:39.827Z,31.80
2022-07-28T13:26:07.691Z,31.90
2022-07-28T13:28:35.099Z,32.00
2022-07-28T13:31:01.902Z,32.50
2022-07-28T13:33:28.798Z,32.70
2022-07-28T13:35:55.657Z,32.70
2022-07-28T13:38:22.445Z,32.80
2022-07-28T13:40:49.159Z,32.80
2022-07-28T13:43:15.921Z,32.60
2022-07-28T13:45:42.773Z,32.60
2022-07-28T13:48:09.628Z,32.60
2022-07-28T13:50:36.642Z,32.80
2022-07-28T13:53:03.423Z,32.70
2022-07-28T13:55:30.183Z,32.50
2022-07-28T13:57:56.966Z,31.90
2022-07-28T14:00:24.323Z,31.60
2022-07-28T14:02:51.758Z,31.70
2022-07-28T14:05:18.601Z,31.80
2022-07-28T14:07:48.495Z,31.90
2022-07-28T14:10:16.627Z,31.90
2022-07-28T14:12:45.198Z,32.00
2022-07-28T14:15:13.399Z,32.00
2022-07-28T14:17:43.554Z,31.80
2022-07-28T14:20:13.688Z,31.80
2022-07-28T14:22:40.972Z,31.80
2022-07-28T14:25:08.218Z,31.90
2022-07-28T14:27:35.066Z,32.00
2022-07-28T14:30:03.642Z,32.20
2022-07-28T14:32:31.135Z,32.50
2022-07-28T14:34:57.850Z,32.70
2022-07-28T14:37:25.135Z,32.60
2022-07-28T14:39:51.898Z,32.50
2022-07-28T14:42:18.866Z,32.40
2022-07-28T14:44:45.593Z,32.40
2022-07-28T14:47:12.412Z,32.30
2022-07-28T14:49:58.303Z,32.10
2022-07-28T14:52:26.841Z,32.10
2022-07-28T14:54:57.403Z,31.90
2022-07-28T14:57:43.173Z,31.80
2022-07-28T15:00:13.752Z,31.60
2022-07-28T15:02:40.957Z,31.40
2022-07-28T15:05:08.953Z,31.20
2022-07-28T15:07:36.049Z,31.10
2022-07-28T15:10:04.539Z,31.00
2022-07-28T15:12:31.457Z,31.10
2022-07-28T15:14:58.159Z,31.20
2022-07-28T15:17:24.888Z,31.20
2022-07-28T15:19:51.649Z,31.20
2022-07-28T15:22:18.420Z,31.10
2022-07-28T15:24:46.008Z,31.10
2022-07-28T15:27:12.750Z,31.10
2022-07-28T15:29:39.560Z,31.20
2022-07-28T15:32:12.378Z,31.10
2022-07-28T15:34:39.983Z,31.10
2022-07-28T15:37:07.120Z,31.00
2022-07-28T15:39:34.090Z,30.90
2022-07-28T15:42:01.294Z,30.90
2022-07-28T15:44:29.860Z,30.70
2022-07-28T15:46:56.658Z,30.40
2022-07-28T15:49:23.596Z,30.10
2022-07-28T15:51:50.374Z,29.90
2022-07-28T15:54:18.004Z,29.90
2022-07-28T15:56:45.151Z,29.90
2022-07-28T15:59:11.907Z,30.10
2022-07-28T16:01:45.205Z,30.10
2022-07-28T16:04:12.541Z,30.20
2022-07-28T16:06:58.207Z,30.20
2022-07-28T16:09:24.947Z,30.20
2022-07-28T16:12:13.058Z,30.20
2022-07-28T16:14:42.332Z,30.10
2022-07-28T16:17:09.875Z,30.10
2022-07-28T16:19:48.869Z,30.10
2022-07-28T16:22:20.335Z,30.30
2022-07-28T16:24:47.703Z,30.30
2022-07-28T16:27:14.716Z,30.40
2022-07-28T16:29:41.600Z,30.30
2022-07-28T16:32:08.365Z,30.30
2022-07-28T16:34:35.850Z,30.40
2022-07-28T16:37:05.807Z,30.40
2022-07-28T16:39:33.377Z,30.30
2022-07-28T16:42:00.134Z,30.20
2022-07-28T16:44:28.537Z,30.20
2022-07-28T16:46:55.365Z,30.20
2022-07-28T16:49:22.264Z,30.20
2022-07-28T16:51:49.118Z,30.20
2022-07-28T16:54:16.240Z,30.30
2022-07-28T16:56:43.355Z,30.20
2022-07-28T16:59:10.094Z,30.20
2022-07-28T17:01:38.901Z,30.00
2022-07-28T17:04:09.008Z,29.80
2022-07-28T17:06:36.728Z,29.60
2022-07-28T17:09:03.719Z,29.50
2022-07-28T17:11:30.452Z,29.60
2022-07-28T17:13:57.162Z,29.50
2022-07-28T17:16:23.928Z,29.60
2022-07-28T17:18:50.704Z,29.70
2022-07-28T17:21:17.435Z,29.70
2022-07-28T17:23:44.444Z,29.60
2022-07-28T17:28:58.722Z,29.50
2022-07-28T17:31:25.587Z,29.30
2022-07-28T17:33:52.433Z,29.10
2022-07-28T17:36:19.126Z,29.10
2022-07-28T17:38:45.830Z,29.20
2022-07-28T17:41:12.633Z,29.20
2022-07-28T17:43:45.112Z,29.20
2022-07-28T17:46:12.847Z,29.20
2022-07-28T17:48:39.961Z,29.30
2022-07-28T17:51:06.959Z,29.20
2022-07-28T17:53:39.056Z,29.10
2022-07-28T17:56:08.480Z,29.10
2022-07-28T17:58:35.914Z,29.10
2022-07-28T18:01:09.559Z,29.10
2022-07-28T18:03:58.529Z,29.10
2022-07-28T18:06:34.303Z,29.10
2022-07-28T18:09:06.079Z,29.00
2022-07-28T18:11:33.951Z,28.80
2022-07-28T18:14:04.442Z,28.80
2022-07-28T18:16:45.034Z,28.60
2022-07-28T18:19:11.732Z,28.50
2022-07-28T18:21:39.315Z,28.50
2022-07-28T18:24:10.042Z,28.30
2022-07-28T18:26:36.727Z,28.30
2022-07-28T18:29:03.430Z,28.40
2022-07-28T18:31:30.278Z,28.40
2022-07-28T18:33:57.079Z,28.30
2022-07-28T18:36:23.826Z,28.30
2022-07-28T18:38:50.525Z,28.20
2022-07-28T18:41:17.716Z,28.30
2022-07-28T18:43:44.408Z,28.20
2022-07-28T18:46:11.215Z,28.30
2022-07-28T18:48:38.237Z,28.30
2022-07-28T18:51:05.045Z,28.20
2022-07-28T18:53:31.730Z,28.10
2022-07-28T18:55:58.454Z,28.20
2022-07-28T18:58:25.183Z,28.20
2022-07-28T19:00:51.921Z,28.10
2022-07-28T19:03:18.754Z,28.00
2022-07-28T19:05:46.340Z,27.90
2022-07-28T19:08:13.340Z,27.90
2022-07-28T19:10:40.231Z,27.80
2022-07-28T19:13:12.869Z,27.80
2022-07-28T19:15:41.340Z,27.70
2022-07-28T19:18:10.839Z,27.70
2022-07-28T19:20:39.598Z,27.60
2022-07-28T19:23:06.664Z,27.60
2022-07-28T19:25:35.733Z,27.60
2022-07-28T19:28:02.574Z,27.50
2022-07-28T19:30:30.685Z,27.50
2022-07-28T19:32:57.778Z,27.40
2022-07-28T19:35:24.572Z,27.40
2022-07-28T19:37:51.280Z,27.50
2022-07-28T19:40:18.107Z,27.50
2022-07-28T19:42:44.997Z,27.50
2022-07-28T19:45:11.891Z,27.40
2022-07-28T19:47:38.974Z,27.40
2022-07-28T19:50:06.060Z,27.40
2022-07-28T19:52:33.406Z,27.30
2022-07-28T19:55:00.153Z,27.30
2022-07-28T19:57:27.109Z,27.20
2022-07-28T19:59:53.812Z,27.20
2022-07-28T20:02:20.572Z,27.10
2022-07-28T20:04:47.429Z,27.00
2022-07-28T20:07:14.165Z,27.00
2022-07-28T20:09:40.956Z,26.90
2022-07-28T20:12:08.737Z,26.90
2022-07-28T20:14:36.766Z,27.00
2022-07-28T20:17:03.788Z,27.10
2022-07-28T20:19:30.563Z,27.10
2022-07-28T20:21:57.300Z,27.10
2022-07-28T20:24:24.073Z,27.10
2022-07-28T20:26:50.766Z,27.10
2022-07-28T20:29:18.050Z,27.00
2022-07-28T20:31:44.757Z,26.90
2022-07-28T20:34:12.918Z,26.80
2022-07-28T20:36:39.965Z,26.80
2022-07-28T20:39:27.550Z,26.80
2022-07-28T20:41:53.597Z,26.90
2022-07-28T20:44:29.077Z,26.90
2022-07-28T20:46:58.594Z,26.90
2022-07-28T20:49:25.452Z,26.80
2022-07-28T20:51:52.251Z,26.80
2022-07-28T20:54:19.044Z,26.70
2022-07-28T20:56:45.814Z,26.70
2022-07-28T20:59:13.285Z,26.70
2022-07-28T21:01:40.746Z,26.60
2022-07-28T21:04:10.040Z,26.60
2022-07-28T21:06:38.715Z,26.50
2022-07-28T21:09:05.597Z,26.50
2022-07-28T21:11:35.092Z,26.50
2022-07-28T21:14:02.275Z,26.40
2022-07-28T21:16:29.085Z,26.40
2022-07-28T21:18:55.825Z,26.30
2022-07-28T21:21:22.594Z,26.30
2022-07-28T21:23:50.049Z,26.30
2022-07-28T21:26:17.217Z,26.20
2022-07-28T21:29:02.433Z,26.10
2022-07-28T21:31:29.143Z,26.00
2022-07-28T21:33:55.964Z,25.90
2022-07-28T21:36:22.750Z,25.90
2022-07-28T21:38:49.479Z,25.90
2022-07-28T21:41:18.551Z,26.00
2022-07-28T21:43:45.353Z,25.90
2022-07-28T21:46:12.165Z,25.90
2022-07-28T21:48:39.056Z,26.00
2022-07-28T21:51:16.395Z,26.00
2022-07-28T21:53:49.249Z,26.00
2022-07-28T21:56:16.194Z,26.00
2022-07-28T21:58:43.966Z,26.00
2022-07-28T22:01:10.925Z,26.00
2022-07-28T22:03:39.439Z,26.00
2022-07-28T22:06:07.084Z,26.00
2022-07-28T22:08:34.385Z,26.00
2022-07-28T22:11:01.909Z,26.00
2022-07-28T22:13:28.815Z,26.00
2022-07-28T22:15:55.747Z,26.00
2022-07-28T22:18:22.522Z,26.00
2022-07-28T22:20:49.478Z,26.00
2022-07-28T22:23:29.579Z,26.00
2022-07-28T22:25:57.022Z,26.00
2022-07-28T22:28:30.154Z,26.00
2022-07-28T22:30:57.915Z,26.00
2022-07-28T22:33:24.881Z,25.90
2022-07-28T22:35:52.421Z,25.90
2022-07-28T22:38:19.159Z,25.90
2022-07-28T22:40:45.896Z,25.80
2022-07-28T22:43:13.274Z,25.80
2022-07-28T22:45:49.416Z,25.70
2022-07-28T22:48:18.110Z,25.70
2022-07-28T22:50:45.001Z,25.60
2022-07-28T22:53:11.773Z,25.50
2022-07-28T22:55:40.024Z,25.50
2022-07-28T22:58:06.876Z,25.40
2022-07-28T23:00:33.867Z,25.40
2022-07-28T23:03:04.300Z,25.30
2022-07-28T23:05:31.214Z,25.20
2022-07-28T23:07:58.685Z,25.10
2022-07-28T23:10:26.426Z,25.10
2022-07-28T23:12:57.225Z,25.10
2022-07-28T23:15:24.127Z,25.00
2022-07-28T23:18:06.557Z,24.90
2022-07-28T23:20:33.317Z,24.80
2022-07-28T23:23:00.002Z,24.70
2022-07-28T23:25:26.764Z,24.70
2022-07-28T23:27:53.499Z,24.70
2022-07-28T23:30:20.234Z,24.60
2022-07-28T23:32:49.955Z,24.60
2022-07-28T23:35:16.719Z,24.50
2022-07-28T23:37:43.427Z,24.50
2022-07-28T23:40:10.805Z,24.40
2022-07-28T23:42:37.576Z,24.40
2022-07-28T23:45:04.971Z,24.30
2022-07-28T23:47:34.229Z,24.30
2022-07-28T23:50:02.001Z,24.30
2022-07-28T23:52:29.077Z,24.20
2022-07-28T23:54:55.979Z,24.20
2022-07-28T23:57:22.920Z,24.10
2022-07-28T23:59:49.689Z,24.10
